Time;durP1;ratioP1;P1;durP2;ratioP2;P2;SDS_P1;SDS_P2;PMS_P1;PMS_P2;Temp;Humidity;BMP_temperature;BMP_pressure;BME280_temperature;BME280_humidity;BME280_pressure;Samples;Min_cycle;Max_cycle;Signal;HPM_P1;HPM_P2
2022/08/17 00:01:54;;;;;;;29.42;26.23;;;;;;;22.10;69.99;100758.22;6213879;23;20004;-68
2022/08/17 00:04:20;;;;;;;31.63;26.67;;;;;;;22.11;70.07;100754.31;6215847;23;20062;-69
2022/08/17 00:06:46;;;;;;;32.70;27.17;;;;;;;22.03;70.78;100748.72;6216075;23;20012;-68
2022/08/17 00:09:11;;;;;;;29.63;25.75;;;;;;;22.00;71.11;100750.16;6216079;23;20011;-69
2022/08/17 00:11:40;;;;;;;29.70;26.58;;;;;;;21.92;71.61;100742.56;6215904;23;20004;-68
2022/08/17 00:14:14;;;;;;;29.90;26.80;;;;;;;21.90;72.01;100750.31;6216600;23;20418;-68
2022/08/17 00:16:43;;;;;;;30.85;27.35;;;;;;;21.88;72.50;100738.81;6216255;23;20000;-68
2022/08/17 00:19:11;;;;;;;30.60;27.40;;;;;;;21.86;72.65;100732.78;6215982;23;20013;-68
2022/08/17 00:21:40;;;;;;;33.75;26.98;;;;;;;21.89;73.27;100732.16;6216286;23;20009;-68
2022/08/17 00:24:06;;;;;;;31.58;27.08;;;;;;;21.88;73.48;100723.09;6216479;23;20009;-68
2022/08/17 00:26:31;;;;;;;30.85;27.25;;;;;;;21.85;74.07;100720.94;6216245;23;20012;-68
2022/08/17 00:28:57;;;;;;;32.63;28.13;;;;;;;21.90;73.53;100720.03;6215893;23;20004;-68
2022/08/17 00:31:23;;;;;;;32.10;28.77;;;;;;;21.82;74.83;100718.81;6189515;23;20330;-68
2022/08/17 00:33:49;;;;;;;32.38;29.05;;;;;;;21.86;74.66;100721.75;6215973;23;20008;-68
2022/08/17 00:36:15;;;;;;;37.05;29.73;;;;;;;21.89;74.92;100721.13;6216377;23;20007;-68
2022/08/17 00:38:41;;;;;;;32.30;28.42;;;;;;;21.93;74.66;100722.16;6216403;23;20123;-68
2022/08/17 00:41:16;;;;;;;31.85;28.55;;;;;;;21.90;75.06;100712.56;6216356;23;20079;-68
2022/08/17 00:43:48;;;;;;;32.00;28.73;;;;;;;21.90;75.45;100714.53;6216348;23;20000;-68
2022/08/17 00:46:15;;;;;;;31.77;27.27;;;;;;;21.91;75.72;100708.69;6216296;23;20027;-68
2022/08/17 00:48:41;;;;;;;31.73;28.27;;;;;;;21.89;75.98;100715.63;6215268;23;20001;-68
2022/08/17 00:51:10;;;;;;;31.77;28.60;;;;;;;21.90;75.83;100711.75;6215613;23;20067;-68
2022/08/17 00:53:39;;;;;;;32.83;28.42;;;;;;;21.91;75.75;100718.91;6215912;23;20015;-68
2022/08/17 00:56:09;;;;;;;31.70;28.50;;;;;;;21.94;75.54;100712.78;6216230;23;20000;-68
2022/08/17 00:58:36;;;;;;;34.37;28.57;;;;;;;21.96;75.50;100716.06;6215614;23;20009;-68
2022/08/17 01:01:02;;;;;;;32.38;27.92;;;;;;;21.91;76.20;100710.66;6213109;23;20434;-68
2022/08/17 01:03:29;;;;;;;32.63;28.83;;;;;;;21.87;77.27;100717.88;6215008;23;20008;-68
2022/08/17 01:05:58;;;;;;;33.65;29.67;;;;;;;21.80;77.41;100707.28;6215433;23;20012;-68
2022/08/17 01:08:28;;;;;;;34.40;29.05;;;;;;;21.82;77.07;100712.47;6216023;23;20012;-68
2022/08/17 01:10:55;;;;;;;33.20;29.63;;;;;;;21.81;77.15;100713.59;6215357;23;20004;-68
2022/08/17 01:13:23;;;;;;;33.08;28.92;;;;;;;21.75;78.19;100705.41;6215713;23;20001;-68
2022/08/17 01:16:00;;;;;;;33.13;29.73;;;;;;;21.81;77.17;100706.13;6215075;23;20062;-68
2022/08/17 01:18:26;;;;;;;32.38;28.85;;;;;;;21.82;77.42;100701.47;6215223;23;20369;-66
2022/08/17 01:20:54;;;;;;;31.08;27.85;;;;;;;21.82;77.54;100699.53;6215987;23;20011;-69
2022/08/17 01:23:22;;;;;;;32.55;29.15;;;;;;;21.79;77.56;100694.63;6215300;23;20377;-69
2022/08/17 01:25:49;;;;;;;31.50;27.55;;;;;;;21.82;77.58;100698.72;6215960;23;20024;-69
2022/08/17 01:28:15;;;;;;;30.23;27.25;;;;;;;21.85;77.86;100692.59;6215534;23;20103;-69
2022/08/17 01:30:41;;;;;;;30.90;27.70;;;;;;;21.82;77.62;100688.50;6210714;23;20010;-67
2022/08/17 01:33:10;;;;;;;30.50;27.13;;;;;;;21.84;77.20;100689.00;6215852;23;20080;-69
2022/08/17 01:35:39;;;;;;;30.27;26.55;;;;;;;21.85;77.16;100685.13;6215613;23;20004;-67
2022/08/17 01:38:05;;;;;;;30.60;26.98;;;;;;;21.80;77.94;100685.25;6215841;23;20059;-69
2022/08/17 01:40:50;;;;;;;30.63;27.25;;;;;;;21.81;78.15;100686.06;6215453;23;20039;-68
2022/08/17 01:43:21;;;;;;;29.77;26.77;;;;;;;21.74;78.36;100676.25;6215877;23;20001;-69
2022/08/17 01:45:50;;;;;;;29.83;26.52;;;;;;;21.72;78.44;100683.19;6215245;23;20004;-69
2022/08/17 01:48:18;;;;;;;30.52;27.17;;;;;;;21.68;78.68;100677.47;6215790;23;20004;-68
2022/08/17 01:50:45;;;;;;;35.42;28.08;;;;;;;21.71;78.38;100679.63;6214785;23;20027;-67
2022/08/17 01:53:22;;;;;;;32.50;27.27;;;;;;;21.67;78.58;100684.09;6215126;23;20008;-69
2022/08/17 01:56:08;;;;;;;28.20;25.20;;;;;;;21.72;77.94;100677.66;6215707;23;20027;-67
2022/08/17 01:58:35;;;;;;;31.17;26.50;;;;;;;21.69;78.43;100673.59;6215112;23;20005;-69
2022/08/17 02:01:01;;;;;;;29.60;25.98;;;;;;;21.66;78.92;100673.38;6211912;23;20067;-69
2022/08/17 02:03:28;;;;;;;31.42;26.30;;;;;;;21.63;79.14;100676.75;6214775;23;20581;-68
2022/08/17 02:05:53;;;;;;;30.05;26.95;;;;;;;21.59;79.65;100668.28;6215306;23;20102;-68
2022/08/17 02:08:20;;;;;;;29.80;26.58;;;;;;;21.59;79.60;100674.59;6215569;23;20004;-68
2022/08/17 02:10:48;;;;;;;30.65;26.48;;;;;;;21.56;79.91;100669.72;6215627;23;20043;-67
2022/08/17 02:13:13;;;;;;;32.50;28.00;;;;;;;21.57;80.21;100670.50;6214479;23;20008;-68
2022/08/17 02:15:40;;;;;;;29.83;26.90;;;;;;;21.54;80.00;100655.44;6214604;23;20004;-67
2022/08/17 02:18:06;;;;;;;30.83;27.48;;;;;;;21.57;79.79;100665.00;6214989;23;20001;-69
2022/08/17 02:20:32;;;;;;;31.02;27.92;;;;;;;21.50;80.94;100668.16;6214823;23;20004;-68
2022/08/17 02:23:00;;;;;;;32.15;28.80;;;;;;;21.49;81.05;100663.75;6215336;23;20058;-68
2022/08/17 02:25:29;;;;;;;34.17;28.40;;;;;;;21.44;81.73;100669.34;6215069;23;20020;-68
2022/08/17 02:27:54;;;;;;;32.95;29.63;;;;;;;21.40;81.75;100666.38;6215338;23;20005;-69
2022/08/17 02:30:19;;;;;;;34.30;30.48;;;;;;;21.34;82.71;100661.28;6214700;23;20039;-67
2022/08/17 02:32:44;;;;;;;34.53;31.02;;;;;;;21.28;83.76;100662.47;6214621;23;20009;-67
2022/08/17 02:35:12;;;;;;;34.55;30.90;;;;;;;21.25;84.03;100658.38;6214701;23;20058;-67
2022/08/17 02:37:37;;;;;;;33.15;29.80;;;;;;;21.24;84.75;100654.00;6214978;23;20087;-68
2022/08/17 02:40:04;;;;;;;33.47;29.88;;;;;;;21.15;85.89;100664.06;6214917;23;20032;-69
2022/08/17 02:42:33;;;;;;;34.08;30.58;;;;;;;21.13;86.89;100655.31;6214986;23;20005;-67
2022/08/17 02:45:00;;;;;;;34.38;30.02;;;;;;;21.10;86.91;100645.72;6214664;23;20005;-69
2022/08/17 02:47:26;;;;;;;33.70;30.35;;;;;;;21.02;87.68;100651.91;6214048;23;20337;-69
2022/08/17 02:49:53;;;;;;;35.75;30.92;;;;;;;21.03;88.75;100650.78;6214671;23;20330;-69
2022/08/17 02:52:19;;;;;;;34.95;30.95;;;;;;;20.96;89.71;100648.41;6215086;23;20414;-67
2022/08/17 02:54:44;;;;;;;35.92;30.65;;;;;;;20.98;89.62;100646.16;6214518;23;20119;-67
2022/08/17 02:57:10;;;;;;;35.05;31.50;;;;;;;21.02;88.53;100649.97;6214457;23;20007;-67
2022/08/17 02:59:39;;;;;;;34.47;30.85;;;;;;;20.96;89.76;100653.91;6214325;23;20088;-69
2022/08/17 03:02:10;;;;;;;36.45;32.40;;;;;;;20.90;91.13;100652.38;6211439;23;20024;-68
2022/08/17 03:04:36;;;;;;;37.42;32.90;;;;;;;20.92;90.81;100644.63;6188021;23;20009;-67
2022/08/17 03:07:03;;;;;;;36.65;32.65;;;;;;;20.88;92.42;100638.13;6214987;23;20016;-68
2022/08/17 03:09:28;;;;;;;35.80;32.20;;;;;;;20.94;90.77;100630.56;6214304;23;20486;-68
2022/08/17 03:11:53;;;;;;;36.92;32.83;;;;;;;20.90;92.64;100635.88;6188375;23;20011;-68
2022/08/17 03:14:18;;;;;;;38.00;33.90;;;;;;;20.85;92.53;100631.25;6214610;23;20008;-67
2022/08/17 03:16:44;;;;;;;35.22;31.85;;;;;;;20.80;93.68;100630.53;6213814;23;20004;-68
2022/08/17 03:19:09;;;;;;;36.50;31.67;;;;;;;20.89;93.08;100634.22;6187386;23;20020;-68
2022/08/17 03:21:34;;;;;;;34.80;31.02;;;;;;;20.89;92.75;100629.56;6214717;23;20059;-68
2022/08/17 03:24:00;;;;;;;34.25;30.65;;;;;;;20.92;92.78;100633.63;6214836;23;20369;-68
2022/08/17 03:26:26;;;;;;;33.97;30.58;;;;;;;20.91;92.84;100634.75;6214749;23;20005;-68
2022/08/17 03:28:51;;;;;;;33.60;30.35;;;;;;;20.86;94.01;100641.16;6214629;23;20000;-68
2022/08/17 03:31:17;;;;;;;38.20;31.50;;;;;;;20.88;93.49;100636.16;6214363;23;20131;-68
2022/08/17 03:33:42;;;;;;;35.70;30.13;;;;;;;20.85;94.13;100641.47;6214558;23;20000;-68
2022/08/17 03:36:08;;;;;;;33.17;29.77;;;;;;;20.83;94.48;100649.97;6214854;23;20001;-68
2022/08/17 03:38:33;;;;;;;32.45;28.95;;;;;;;20.77;94.87;100640.19;6214506;23;20023;-68
2022/08/17 03:40:58;;;;;;;32.55;29.17;;;;;;;20.78;94.80;100635.50;6214780;23;20005;-68
2022/08/17 03:43:24;;;;;;;32.87;28.63;;;;;;;20.84;94.68;100653.56;6214026;23;20057;-68
2022/08/17 03:57:04;;;;;;;34.85;28.27;;;;;;;20.90;93.71;100652.38;6214500;23;20051;-68
2022/08/17 03:59:30;;;;;;;34.45;28.90;;;;;;;20.87;95.25;100658.47;6214523;23;20012;-68
2022/08/17 04:01:59;;;;;;;32.22;28.92;;;;;;;20.91;93.72;100658.69;6211058;23;20008;-68
2022/08/17 04:04:25;;;;;;;32.28;28.83;;;;;;;20.87;94.34;100662.03;6214166;23;20008;-68
2022/08/17 04:06:50;;;;;;;35.67;29.58;;;;;;;20.84;95.36;100667.31;6212381;23;20013;-68
2022/08/17 04:09:15;;;;;;;36.28;30.38;;;;;;;20.80;96.04;100682.78;6214571;23;20055;-68
2022/08/17 04:11:41;;;;;;;35.63;30.35;;;;;;;20.76;97.50;100703.72;6214016;23;20004;-68
2022/08/17 04:14:07;;;;;;;33.22;29.77;;;;;;;20.70;98.33;100703.81;6214647;23;20016;-68
2022/08/17 04:16:34;;;;;;;35.47;31.25;;;;;;;20.53;100.00;100709.78;6213784;23;20009;-68
2022/08/17 04:19:00;;;;;;;37.00;33.15;;;;;;;20.36;100.00;100713.00;6214658;23;20084;-68
2022/08/17 04:21:26;;;;;;;36.92;33.13;;;;;;;20.30;100.00;100705.16;6214605;23;20012;-68
2022/08/17 04:23:51;;;;;;;35.28;31.70;;;;;;;20.31;100.00;100693.06;6214040;23;20005;-68
2022/08/17 04:26:17;;;;;;;34.35;30.65;;;;;;;20.38;100.00;100700.91;6213931;23;20000;-68
2022/08/17 04:28:43;;;;;;;39.08;32.28;;;;;;;20.39;100.00;100710.81;6214181;23;20004;-68
2022/08/17 04:31:10;;;;;;;35.95;32.22;;;;;;;20.30;100.00;100711.44;6214031;23;20019;-68
2022/08/17 04:33:36;;;;;;;34.83;31.20;;;;;;;20.28;100.00;100715.63;6214265;23;20055;-68
2022/08/17 04:36:04;;;;;;;37.13;30.80;;;;;;;20.30;100.00;100722.44;6214571;23;20445;-68
2022/08/17 04:38:32;;;;;;;35.70;31.42;;;;;;;20.35;100.00;100752.63;6214623;23;20001;-68
2022/08/17 04:43:44;;;;;;;36.20;31.52;;;;;;;20.42;100.00;100745.94;6215825;23;20456;-68
2022/08/17 04:46:14;;;;;;;35.40;31.70;;;;;;;20.48;100.00;100744.78;6215475;23;20004;-68
2022/08/17 04:48:42;;;;;;;34.50;31.00;;;;;;;20.51;100.00;100753.22;6215549;23;20008;-68
2022/08/17 04:51:14;;;;;;;35.38;31.50;;;;;;;20.45;100.00;100748.09;6216259;23;20000;-67
2022/08/17 04:53:43;;;;;;;33.38;29.75;;;;;;;20.49;100.00;100751.91;6215631;23;20005;-67
2022/08/17 04:56:10;;;;;;;34.90;30.77;;;;;;;20.41;100.00;100733.31;6216215;23;20005;-68
2022/08/17 04:58:35;;;;;;;33.58;30.13;;;;;;;20.48;100.00;100748.31;6215904;23;20322;-68
2022/08/17 05:01:00;;;;;;;37.63;30.25;;;;;;;20.45;100.00;100728.88;6212614;23;20015;-68
2022/08/17 05:03:26;;;;;;;33.92;30.08;;;;;;;20.50;100.00;100731.53;6215224;23;20013;-68
2022/08/17 05:05:52;;;;;;;33.45;29.83;;;;;;;20.45;100.00;100723.38;6215481;23;20131;-68
2022/08/17 05:08:18;;;;;;;34.10;30.70;;;;;;;20.40;100.00;100737.19;6216220;23;20008;-68
2022/08/17 05:10:45;;;;;;;33.90;30.40;;;;;;;20.40;100.00;100726.19;6215723;23;20509;-68
2022/08/17 05:13:17;;;;;;;35.40;29.98;;;;;;;20.35;100.00;100714.16;6216101;23;20007;-68
2022/08/17 05:15:44;;;;;;;33.08;29.63;;;;;;;20.39;100.00;100721.81;6214485;23;20008;-68
2022/08/17 05:18:10;;;;;;;34.30;29.00;;;;;;;20.45;100.00;100724.19;6188995;23;20013;-68
2022/08/17 05:20:38;;;;;;;33.08;28.75;;;;;;;20.50;100.00;100726.88;6215807;23;20004;-68
2022/08/17 05:23:07;;;;;;;31.92;28.52;;;;;;;20.55;100.00;100734.25;6215568;23;20005;-68
2022/08/17 05:25:36;;;;;;;33.83;27.70;;;;;;;20.57;100.00;100734.75;6215072;23;20333;-68
2022/08/17 05:28:03;;;;;;;30.63;27.23;;;;;;;20.62;100.00;100729.19;6215945;23;20007;-68
2022/08/17 05:30:28;;;;;;;30.92;27.42;;;;;;;20.62;100.00;100723.69;6215465;23;20414;-67
2022/08/17 05:33:06;;;;;;;30.92;27.65;;;;;;;20.66;100.00;100719.25;6215142;23;20054;-68
2022/08/17 05:35:35;;;;;;;31.52;27.00;;;;;;;20.64;100.00;100717.91;6215957;23;20028;-68
2022/08/17 05:38:00;;;;;;;33.80;28.20;;;;;;;20.68;100.00;100714.31;6215842;23;20009;-68
2022/08/17 05:40:27;;;;;;;29.65;26.35;;;;;;;20.66;100.00;100716.50;6215805;23;20326;-68
2022/08/17 05:43:13;;;;;;;29.33;26.40;;;;;;;20.67;100.00;100723.66;6215486;23;20088;-68
2022/08/17 05:45:47;;;;;;;30.45;26.98;;;;;;;20.66;100.00;100730.25;6214400;23;20437;-68
2022/08/17 05:48:14;;;;;;;31.50;25.98;;;;;;;20.67;100.00;100723.66;6215310;23;20001;-68
2022/08/17 05:50:50;;;;;;;29.52;25.10;;;;;;;20.68;100.00;100722.53;6215260;23;20402;-68
2022/08/17 05:53:29;;;;;;;28.63;25.42;;;;;;;20.76;100.00;100722.97;6215755;23;20087;-68
2022/08/17 05:56:12;;;;;;;30.02;25.00;;;;;;;20.78;100.00;100720.75;6215346;23;20004;-68
2022/08/17 05:58:52;;;;;;;27.50;24.52;;;;;;;20.82;100.00;100716.28;6215310;23;20369;-68
2022/08/17 06:02:03;;;;;;;26.02;23.33;;;;;;;20.89;100.00;100728.56;6212494;23;20004;-67
2022/08/17 06:04:56;;;;;;;32.00;22.85;;;;;;;20.96;100.00;100728.19;6215077;23;20015;-68
2022/08/17 06:07:34;;;;;;;25.48;22.77;;;;;;;20.99;100.00;100733.09;6188655;23;20015;-68
2022/08/17 06:10:11;;;;;;;24.30;21.38;;;;;;;20.99;100.00;100732.28;6215252;23;20083;-68
2022/08/17 06:13:35;;;;;;;24.95;21.98;;;;;;;21.04;100.00;100741.25;6215433;23;20437;-68
2022/08/17 06:16:06;;;;;;;27.40;21.30;;;;;;;21.06;100.00;100732.69;6191670;23;20094;-68
2022/08/17 06:18:47;;;;;;;23.45;20.75;;;;;;;21.11;100.00;100726.34;6214329;23;20004;-68
2022/08/17 06:21:16;;;;;;;25.98;21.55;;;;;;;21.05;100.00;100736.59;6215406;23;20008;-68
2022/08/17 06:23:48;;;;;;;29.55;22.30;;;;;;;21.05;100.00;100751.16;6214571;23;20088;-68
2022/08/17 06:26:16;;;;;;;29.27;22.27;;;;;;;21.07;100.00;100750.84;6214984;23;20304;-68
2022/08/17 06:28:53;;;;;;;26.33;22.67;;;;;;;21.05;100.00;100753.91;6215111;23;20008;-68
2022/08/17 06:31:26;;;;;;;25.25;21.08;;;;;;;21.03;100.00;100755.31;6214955;23;20004;-68
2022/08/17 06:33:53;;;;;;;21.98;19.65;;;;;;;21.03;100.00;100755.31;6214128;23;20326;-68
2022/08/17 06:36:51;;;;;;;21.88;18.95;;;;;;;21.08;100.00;100765.44;6188562;23;20023;-68
2022/08/17 06:39:58;;;;;;;22.52;19.33;;;;;;;21.01;100.00;100763.06;6188706;23;20009;-68
2022/08/17 06:42:52;;;;;;;23.23;19.58;;;;;;;21.04;100.00;100762.44;6215095;23;20004;-68
2022/08/17 06:45:23;;;;;;;21.50;19.35;;;;;;;20.98;100.00;100763.66;6214820;23;20001;-68
2022/08/17 06:48:03;;;;;;;20.48;18.30;;;;;;;21.02;100.00;100761.94;6213840;23;20039;-68
2022/08/17 06:50:34;;;;;;;21.17;19.05;;;;;;;20.99;100.00;100770.78;6214388;23;20008;-68
2022/08/17 06:53:15;;;;;;;21.38;18.63;;;;;;;21.03;100.00;100780.91;6214803;23;20295;-68
2022/08/17 06:55:43;;;;;;;19.45;17.48;;;;;;;21.05;100.00;100786.09;6214813;23;20001;-68
2022/08/17 06:58:12;;;;;;;21.52;17.23;;;;;;;21.02;100.00;100782.00;6215152;23;20001;-68
2022/08/17 07:00:41;;;;;;;19.23;16.92;;;;;;;20.99;100.00;100782.59;6212177;23;20325;-68
2022/08/17 07:03:06;;;;;;;19.05;17.05;;;;;;;20.99;100.00;100788.09;6214451;23;20008;-68
2022/08/17 07:05:38;;;;;;;19.37;16.03;;;;;;;21.05;100.00;100784.16;6214096;23;20005;-68
2022/08/17 07:08:13;;;;;;;18.85;15.52;;;;;;;20.99;100.00;100790.84;6214792;23;20318;-68
2022/08/17 07:10:53;;;;;;;19.17;15.73;;;;;;;20.97;100.00;100784.84;6214921;23;20318;-68
2022/08/17 07:13:30;;;;;;;19.42;16.08;;;;;;;21.01;100.00;100799.63;6214705;23;20311;-68
2022/08/17 07:16:15;;;;;;;18.58;15.30;;;;;;;21.01;100.00;100788.63;6214515;23;20058;-68
2022/08/17 07:18:42;;;;;;;17.67;15.65;;;;;;;21.05;100.00;100788.84;6214251;23;20009;-72
2022/08/17 07:21:28;;;;;;;19.60;15.77;;;;;;;21.12;100.00;100803.06;6187573;23;20004;-69
2022/08/17 07:24:19;;;;;;;18.80;15.57;;;;;;;21.08;100.00;100806.72;6213807;23;20000;-68
2022/08/17 07:26:47;;;;;;;17.55;15.75;;;;;;;21.09;100.00;100797.31;6214745;23;20009;-68
2022/08/17 07:29:16;;;;;;;18.17;16.17;;;;;;;21.03;100.00;100791.91;6188200;23;20098;-68
2022/08/17 07:31:42;;;;;;;21.13;15.27;;;;;;;21.01;100.00;100796.06;6214637;23;20008;-67
2022/08/17 07:34:13;;;;;;;18.83;15.77;;;;;;;20.99;100.00;100803.81;6214546;23;20299;-67
2022/08/17 07:36:40;;;;;;;17.05;15.25;;;;;;;20.98;100.00;100804.91;6214316;23;20001;-67
2022/08/17 07:39:06;;;;;;;20.98;15.60;;;;;;;21.03;100.00;100816.66;6214615;23;20011;-67
2022/08/17 07:41:38;;;;;;;18.48;15.55;;;;;;;20.96;100.00;100815.41;6214828;23;20001;-67
2022/08/17 07:44:09;;;;;;;;;;;;;;;21.11;100.00;100817.94;6214603;23;20055;-67
2022/08/17 07:49:30;;;;;;;18.17;15.85;;;;;;;21.09;100.00;100819.34;6214394;23;20019;-68
2022/08/17 07:52:00;;;;;;;21.47;15.80;;;;;;;21.11;100.00;100822.63;6214430;23;20028;-67
2022/08/17 07:54:34;;;;;;;17.20;15.25;;;;;;;21.17;100.00;100821.44;6214356;23;20076;-73
2022/08/17 07:57:26;;;;;;;15.23;13.65;;;;;;;21.30;100.00;100819.84;6214467;23;20047;-71
2022/08/17 08:00:00;;;;;;;16.58;14.45;;;;;;;21.37;98.88;100823.88;6214545;23;20066;-69
2022/08/17 08:02:40;;;;;;;16.65;14.82;;;;;;;21.39;98.40;100824.41;6211881;23;20058;-70
2022/08/17 08:05:13;;;;;;;20.17;15.73;;;;;;;21.41;98.19;100811.16;6213981;23;20091;-70
2022/08/17 08:07:57;;;;;;;17.42;15.38;;;;;;;21.46;98.05;100817.69;6214285;23;20043;-70
2022/08/17 08:10:31;;;;;;;16.10;14.40;;;;;;;21.51;96.56;100826.72;6187383;23;20019;-71
2022/08/17 08:13:22;;;;;;;17.70;15.90;;;;;;;21.53;97.38;100827.25;6214688;23;20051;-71
2022/08/17 08:15:54;;;;;;;17.02;15.25;;;;;;;21.50;97.04;100833.34;6188955;23;20008;-70
2022/08/17 08:18:39;;;;;;;17.63;14.57;;;;;;;21.60;95.50;100832.34;6216658;23;20079;-71
2022/08/17 08:21:19;;;;;;;17.85;14.80;;;;;;;21.66;95.62;100820.13;6216213;23;20009;-70
2022/08/17 08:23:49;;;;;;;17.35;15.55;;;;;;;21.65;94.79;100835.03;6215870;23;20059;-71
2022/08/17 08:26:45;;;;;;;19.85;16.83;;;;;;;21.71;93.72;100819.25;6213549;23;20028;-70
2022/08/17 08:29:38;;;;;;;20.75;15.95;;;;;;;21.74;94.01;100813.97;6211657;23;20004;-73
2022/08/17 08:32:28;;;;;;;18.77;16.33;;;;;;;21.72;94.33;100805.16;6188972;23;20371;-77
2022/08/17 08:35:09;;;;;;;21.95;15.77;;;;;;;21.75;92.89;100804.56;6214159;23;20051;-71
2022/08/17 08:37:55;;;;;;;19.47;17.30;;;;;;;21.74;92.51;100802.94;6214874;23;20032;-71
2022/08/17 08:40:39;;;;;;;18.85;16.83;;;;;;;21.79;92.96;100806.75;6215787;23;20236;-70
2022/08/17 08:43:11;;;;;;;18.40;16.42;;;;;;;21.75;92.64;100815.56;6215834;23;19997;-71
2022/08/17 08:46:15;;;;;;;17.98;16.08;;;;;;;21.79;92.74;100817.75;6216326;23;20008;-72
2022/08/17 08:48:54;;;;;;;21.85;17.60;;;;;;;21.86;93.38;100835.53;6215941;23;20011;-71
2022/08/17 08:51:48;;;;;;;22.92;17.35;;;;;;;21.89;91.62;100842.34;6216198;23;20027;-72
2022/08/17 08:54:39;;;;;;;21.42;17.55;;;;;;;21.91;90.94;100846.44;6216276;23;20082;-70
2022/08/17 08:57:13;;;;;;;22.60;18.88;;;;;;;21.97;89.36;100846.34;6214836;23;20043;-72
2022/08/17 09:00:03;;;;;;;20.90;18.70;;;;;;;21.96;89.44;100848.28;6216270;23;20012;-71
2022/08/17 09:02:37;;;;;;;20.40;18.27;;;;;;;22.03;89.40;100847.91;6213226;23;20361;-71
2022/08/17 09:05:32;;;;;;;20.15;17.33;;;;;;;22.08;88.55;100840.34;6215631;23;20024;-71
2022/08/17 09:08:06;;;;;;;21.02;16.48;;;;;;;22.07;88.19;100846.16;6160191;23;20013;-71
2022/08/17 09:10:32;;;;;;;23.88;17.73;;;;;;;22.03;87.84;100842.41;6216019;23;20000;-71
2022/08/17 09:13:21;;;;;;;25.88;18.10;;;;;;;22.05;88.72;100846.47;6215159;23;20000;-71
2022/08/17 09:15:56;;;;;;;22.00;18.98;;;;;;;21.96;88.95;100842.78;6215907;23;20001;-71
2022/08/17 09:18:25;;;;;;;22.95;19.00;;;;;;;21.95;89.52;100847.47;6215381;23;20076;-72
2022/08/17 09:21:06;;;;;;;21.73;19.30;;;;;;;21.95;89.97;100850.25;6214942;23;20009;-72
2022/08/17 09:23:45;;;;;;;20.35;17.05;;;;;;;22.00;89.36;100854.84;6187726;23;20005;-71
2022/08/17 09:26:26;;;;;;;22.67;18.10;;;;;;;22.00;90.41;100852.09;6213514;23;20004;-73
2022/08/17 09:28:57;;;;;;;18.83;15.73;;;;;;;22.04;90.92;100858.63;6214103;23;20012;-70
2022/08/17 09:31:36;;;;;;;21.85;17.25;;;;;;;22.03;90.72;100858.94;6188728;23;20008;-70
2022/08/17 09:34:11;;;;;;;18.83;16.42;;;;;;;21.97;91.27;100871.13;6214637;23;20005;-70
2022/08/17 09:36:48;;;;;;;19.23;16.58;;;;;;;21.93;94.33;100874.50;6215672;23;20031;-70
2022/08/17 09:39:26;;;;;;;22.10;16.45;;;;;;;21.93;97.59;100881.97;6215486;23;20062;-71
2022/08/17 09:42:03;;;;;;;24.15;17.15;;;;;;;21.89;100.00;100905.72;6214125;23;20004;-71
2022/08/17 09:44:39;;;;;;;21.35;17.08;;;;;;;21.85;100.00;100908.25;6215970;23;20054;-71
2022/08/17 09:47:45;;;;;;;19.10;16.95;;;;;;;21.84;100.00;100928.66;6215332;23;20011;-71
2022/08/17 09:50:38;;;;;;;24.10;18.70;;;;;;;21.81;100.00;100940.25;6213231;23;20334;-73
2022/08/17 09:53:03;;;;;;;21.55;18.98;;;;;;;21.69;100.00;100943.47;6181736;23;20070;-74
2022/08/17 09:55:52;;;;;;;25.58;17.88;;;;;;;21.69;100.00;100940.72;6215616;23;20013;-73
2022/08/17 09:58:29;;;;;;;26.10;19.67;;;;;;;21.64;100.00;100942.75;6215754;23;20028;-69
2022/08/17 10:01:01;;;;;;;24.77;20.65;;;;;;;21.56;100.00;100934.03;6212672;23;20015;-75
2022/08/17 10:04:04;;;;;;;26.35;20.70;;;;;;;21.53;100.00;100922.78;6215160;23;20410;-74
2022/08/17 10:06:34;;;;;;;24.77;20.73;;;;;;;21.43;100.00;100912.72;6212303;23;20016;-70
2022/08/17 10:09:20;;;;;;;26.85;20.98;;;;;;;21.41;100.00;100920.44;6213553;23;20024;-70
2022/08/17 10:12:18;;;;;;;25.95;20.70;;;;;;;21.34;100.00;100915.28;6215068;23;20009;-71
2022/08/17 10:14:56;;;;;;;28.60;21.23;;;;;;;21.34;100.00;100923.56;6215482;23;20036;-71
2022/08/17 10:17:33;;;;;;;23.55;20.80;;;;;;;21.32;100.00;100922.22;6214946;23;20007;-71
2022/08/17 10:20:11;;;;;;;27.20;22.17;;;;;;;21.33;100.00;100918.34;6213729;23;20322;-72
2022/08/17 10:26:30;;;;;;;31.40;21.77;;;;;;;21.26;100.00;100913.22;6215021;23;20047;-69
2022/08/17 10:28:54;;;;;;;24.07;19.73;;;;;;;21.25;100.00;100917.06;6199795;23;20012;-70
2022/08/17 10:31:30;;;;;;;25.65;21.65;;;;;;;21.15;100.00;100917.19;6214084;23;20016;-71
2022/08/17 10:34:22;;;;;;;30.33;22.48;;;;;;;21.18;100.00;100919.38;6214693;23;20008;-70
2022/08/17 10:37:18;;;;;;;28.60;21.60;;;;;;;21.19;100.00;100918.25;6214699;23;20009;-74
2022/08/17 10:40:22;;;;;;;29.73;23.45;;;;;;;21.19;100.00;100912.75;6214690;23;20000;-74
2022/08/17 10:42:54;;;;;;;29.48;23.23;;;;;;;21.10;100.00;100906.28;6214669;23;20057;-71
2022/08/17 10:45:35;;;;;;;29.05;23.98;;;;;;;21.09;100.00;100893.63;6214798;23;20004;-70
2022/08/17 10:48:19;;;;;;;;;;;;;;;21.22;100.00;100890.16;6214642;23;20015;-69
2022/08/17 10:50:57;;;;;;;31.25;23.55;;;;;;;21.03;100.00;100879.94;6213045;23;20336;-72
2022/08/17 10:53:31;;;;;;;30.77;25.30;;;;;;;21.04;100.00;100881.56;6215156;23;20004;-72
2022/08/17 10:56:17;;;;;;;26.45;22.95;;;;;;;21.06;100.00;100868.34;6213348;23;20005;-72
2022/08/17 10:58:54;;;;;;;28.90;23.52;;;;;;;20.99;100.00;100859.63;6214852;23;20312;-70
2022/08/17 11:01:32;;;;;;;26.10;23.42;;;;;;;20.99;100.00;100862.38;6212072;23;20028;-72
2022/08/17 11:04:09;;;;;;;25.45;22.70;;;;;;;20.92;100.00;100870.16;6214620;23;20063;-71
2022/08/17 11:07:04;;;;;;;26.20;22.17;;;;;;;20.86;100.00;100872.19;6214552;23;20103;-74
2022/08/17 11:09:55;;;;;;;25.48;22.80;;;;;;;20.86;100.00;100876.84;6214985;23;20008;-71
2022/08/17 11:12:20;;;;;;;25.58;22.38;;;;;;;20.80;100.00;100878.03;6214927;23;20004;-70
2022/08/17 11:15:09;;;;;;;24.23;21.80;;;;;;;20.76;100.00;100876.97;6214627;23;20434;-72
2022/08/17 11:18:12;;;;;;;26.35;23.48;;;;;;;20.74;100.00;100876.44;6214782;23;20080;-73
2022/08/17 11:20:42;;;;;;;24.98;22.20;;;;;;;20.69;100.00;100875.38;6214363;23;20054;-69
2022/08/17 11:23:36;;;;;;;26.27;23.55;;;;;;;20.70;100.00;100885.28;6213075;23;20005;-73
2022/08/17 11:26:16;;;;;;;25.98;22.70;;;;;;;20.66;100.00;100889.72;6214764;23;20087;-70
2022/08/17 11:28:48;;;;;;;26.00;23.40;;;;;;;20.67;100.00;100901.56;6215127;23;20011;-74
2022/08/17 11:31:28;;;;;;;25.55;22.90;;;;;;;20.69;100.00;100904.81;6213500;23;20064;-71
2022/08/17 11:34:17;;;;;;;27.55;24.55;;;;;;;20.67;100.00;100913.38;6214472;23;20032;-76
2022/08/17 11:36:59;;;;;;;27.42;24.08;;;;;;;20.71;100.00;100925.44;6195757;23;20501;-73
2022/08/17 11:39:30;;;;;;;25.35;22.75;;;;;;;20.78;100.00;100927.00;6214210;23;20005;-75
2022/08/17 11:42:24;;;;;;;26.65;23.88;;;;;;;20.77;100.00;100931.66;6213612;23;20441;-73
2022/08/17 11:44:57;;;;;;;26.67;23.98;;;;;;;20.81;100.00;100940.97;6186919;23;20091;-73
2022/08/17 11:53:49;;;;;;;25.05;22.60;;;;;;;20.67;100.00;100943.63;6216648;23;20016;-75
2022/08/17 11:56:39;;;;;;;25.77;22.73;;;;;;;20.74;100.00;100945.19;6189706;23;20339;-75
2022/08/17 11:59:42;;;;;;;27.10;22.53;;;;;;;20.68;100.00;100947.16;6216636;23;20362;-76
2022/08/17 12:02:26;;;;;;;27.17;24.48;;;;;;;20.70;100.00;100955.97;6213669;23;20005;-75
2022/08/17 12:05:11;;;;;;;26.95;23.42;;;;;;;20.71;100.00;100969.44;6216794;23;20001;-72